sensor_id;sensor_type;location;lat;lon;timestamp;P1;durP1;ratioP1;P2;durP2;ratioP2
77522;SDS011;66637;-29.628;-49.938;2023-06-22T00:00:20;50.30;;;15.18;;
77522;SDS011;66637;-29.628;-49.938;2023-06-22T00:02:51;48.90;;;15.10;;
77522;SDS011;66637;-29.628;-49.938;2023-06-22T00:05:26;48.53;;;15.43;;
77522;SDS011;66637;-29.628;-49.938;2023-06-22T00:07:57;41.47;;;14.38;;
77522;SDS011;66637;-29.628;-49.938;2023-06-22T00:10:41;45.92;;;17.48;;
77522;SDS011;66637;-29.628;-49.938;2023-06-22T00:13:15;46.15;;;16.60;;
77522;SDS011;66637;-29.628;-49.938;2023-06-22T00:15:52;46.95;;;17.45;;
77522;SDS011;66637;-29.628;-49.938;2023-06-22T00:18:22;46.70;;;18.52;;
77522;SDS011;66637;-29.628;-49.938;2023-06-22T00:21:01;37.53;;;15.57;;
77522;SDS011;66637;-29.628;-49.938;2023-06-22T00:23:32;36.25;;;13.98;;
77522;SDS011;66637;-29.628;-49.938;2023-06-22T00:26:05;24.45;;;12.60;;
77522;SDS011;66637;-29.628;-49.938;2023-06-22T00:28:39;25.80;;;11.63;;
77522;SDS011;66637;-29.628;-49.938;2023-06-22T00:31:11;25.95;;;12.57;;
77522;SDS011;66637;-29.628;-49.938;2023-06-22T00:33:44;23.83;;;11.00;;
77522;SDS011;66637;-29.628;-49.938;2023-06-22T00:38:52;24.48;;;11.65;;
77522;SDS011;66637;-29.628;-49.938;2023-06-22T00:41:23;27.60;;;12.38;;
77522;SDS011;66637;-29.628;-49.938;2023-06-22T00:43:58;23.88;;;11.50;;
77522;SDS011;66637;-29.628;-49.938;2023-06-22T00:46:31;28.05;;;11.45;;
77522;SDS011;66637;-29.628;-49.938;2023-06-22T00:49:03;24.33;;;11.82;;
77522;SDS011;66637;-29.628;-49.938;2023-06-22T00:51:35;26.23;;;11.85;;
77522;SDS011;66637;-29.628;-49.938;2023-06-22T00:54:11;21.50;;;11.68;;
77522;SDS011;66637;-29.628;-49.938;2023-06-22T00:56:43;20.73;;;10.63;;
77522;SDS011;66637;-29.628;-49.938;2023-06-22T00:59:17;24.70;;;10.63;;
77522;SDS011;66637;-29.628;-49.938;2023-06-22T01:01:56;22.13;;;10.63;;
77522;SDS011;66637;-29.628;-49.938;2023-06-22T01:04:37;25.30;;;11.55;;
77522;SDS011;66637;-29.628;-49.938;2023-06-22T01:07:35;24.60;;;10.82;;
77522;SDS011;66637;-29.628;-49.938;2023-06-22T01:10:21;20.90;;;10.75;;
77522;SDS011;66637;-29.628;-49.938;2023-06-22T01:13:13;19.45;;;9.98;;
77522;SDS011;66637;-29.628;-49.938;2023-06-22T01:16:25;19.95;;;10.13;;
77522;SDS011;66637;-29.628;-49.938;2023-06-22T01:19:29;22.15;;;10.23;;
77522;SDS011;66637;-29.628;-49.938;2023-06-22T01:22:04;21.35;;;10.50;;
77522;SDS011;66637;-29.628;-49.938;2023-06-22T01:28:00;20.20;;;10.95;;
77522;SDS011;66637;-29.628;-49.938;2023-06-22T01:30:52;20.25;;;11.18;;
77522;SDS011;66637;-29.628;-49.938;2023-06-22T01:33:54;21.73;;;11.05;;
77522;SDS011;66637;-29.628;-49.938;2023-06-22T01:36:29;22.52;;;11.93;;
77522;SDS011;66637;-29.628;-49.938;2023-06-22T01:39:04;20.08;;;10.60;;
77522;SDS011;66637;-29.628;-49.938;2023-06-22T01:41:41;21.55;;;10.70;;
77522;SDS011;66637;-29.628;-49.938;2023-06-22T01:44:15;17.10;;;10.00;;
77522;SDS011;66637;-29.628;-49.938;2023-06-22T01:46:50;15.63;;;9.27;;
77522;SDS011;66637;-29.628;-49.938;2023-06-22T01:49:22;16.02;;;9.25;;
77522;SDS011;66637;-29.628;-49.938;2023-06-22T01:51:53;17.13;;;8.77;;
77522;SDS011;66637;-29.628;-49.938;2023-06-22T01:54:26;15.45;;;8.23;;
77522;SDS011;66637;-29.628;-49.938;2023-06-22T01:56:59;12.57;;;7.38;;
77522;SDS011;66637;-29.628;-49.938;2023-06-22T01:59:39;10.05;;;6.55;;
77522;SDS011;66637;-29.628;-49.938;2023-06-22T02:02:21;13.38;;;7.78;;
77522;SDS011;66637;-29.628;-49.938;2023-06-22T02:04:58;10.82;;;6.85;;
77522;SDS011;66637;-29.628;-49.938;2023-06-22T02:07:34;14.05;;;8.00;;
77522;SDS011;66637;-29.628;-49.938;2023-06-22T02:10:13;11.02;;;6.85;;
77522;SDS011;66637;-29.628;-49.938;2023-06-22T02:13:24;13.35;;;7.10;;
77522;SDS011;66637;-29.628;-49.938;2023-06-22T02:15:56;16.52;;;7.22;;
77522;SDS011;66637;-29.628;-49.938;2023-06-22T02:18:28;19.20;;;7.68;;
77522;SDS011;66637;-29.628;-49.938;2023-06-22T02:21:00;17.38;;;7.55;;
77522;SDS011;66637;-29.628;-49.938;2023-06-22T02:23:31;25.00;;;7.80;;
77522;SDS011;66637;-29.628;-49.938;2023-06-22T02:26:05;31.25;;;8.82;;
77522;SDS011;66637;-29.628;-49.938;2023-06-22T02:28:36;38.35;;;8.85;;
77522;SDS011;66637;-29.628;-49.938;2023-06-22T02:31:08;32.03;;;8.93;;
77522;SDS011;66637;-29.628;-49.938;2023-06-22T02:36:37;19.05;;;7.95;;
77522;SDS011;66637;-29.628;-49.938;2023-06-22T02:39:09;20.20;;;8.68;;
77522;SDS011;66637;-29.628;-49.938;2023-06-22T02:41:41;22.88;;;8.43;;
77522;SDS011;66637;-29.628;-49.938;2023-06-22T02:44:22;22.08;;;9.73;;
77522;SDS011;66637;-29.628;-49.938;2023-06-22T02:47:22;45.00;;;10.45;;
77522;SDS011;66637;-29.628;-49.938;2023-06-22T02:49:58;52.40;;;12.05;;
77522;SDS011;66637;-29.628;-49.938;2023-06-22T02:52:34;70.60;;;14.15;;
77522;SDS011;66637;-29.628;-49.938;2023-06-22T02:55:09;82.68;;;14.80;;
77522;SDS011;66637;-29.628;-49.938;2023-06-22T02:57:44;81.30;;;16.15;;
77522;SDS011;66637;-29.628;-49.938;2023-06-22T03:00:17;96.10;;;16.17;;
77522;SDS011;66637;-29.628;-49.938;2023-06-22T03:02:50;74.22;;;14.60;;
77522;SDS011;66637;-29.628;-49.938;2023-06-22T03:05:28;69.93;;;15.73;;
77522;SDS011;66637;-29.628;-49.938;2023-06-22T03:08:00;57.85;;;13.13;;
77522;SDS011;66637;-29.628;-49.938;2023-06-22T03:10:34;48.85;;;11.10;;
77522;SDS011;66637;-29.628;-49.938;2023-06-22T03:13:07;40.63;;;10.05;;
77522;SDS011;66637;-29.628;-49.938;2023-06-22T03:15:39;40.88;;;9.88;;
77522;SDS011;66637;-29.628;-49.938;2023-06-22T03:18:09;23.30;;;8.20;;
77522;SDS011;66637;-29.628;-49.938;2023-06-22T03:20:40;19.15;;;8.50;;
77522;SDS011;66637;-29.628;-49.938;2023-06-22T03:23:11;12.50;;;7.22;;
77522;SDS011;66637;-29.628;-49.938;2023-06-22T03:25:43;16.15;;;7.47;;
77522;SDS011;66637;-29.628;-49.938;2023-06-22T03:28:16;12.57;;;7.43;;
77522;SDS011;66637;-29.628;-49.938;2023-06-22T03:30:47;17.85;;;7.97;;
77522;SDS011;66637;-29.628;-49.938;2023-06-22T03:33:21;12.27;;;7.45;;
77522;SDS011;66637;-29.628;-49.938;2023-06-22T03:35:52;11.35;;;7.70;;
77522;SDS011;66637;-29.628;-49.938;2023-06-22T03:38:24;9.73;;;6.85;;
77522;SDS011;66637;-29.628;-49.938;2023-06-22T03:41:06;14.07;;;7.60;;
77522;SDS011;66637;-29.628;-49.938;2023-06-22T03:43:36;9.63;;;7.03;;
77522;SDS011;66637;-29.628;-49.938;2023-06-22T03:46:07;24.20;;;9.75;;
77522;SDS011;66637;-29.628;-49.938;2023-06-22T03:48:38;23.10;;;8.40;;
77522;SDS011;66637;-29.628;-49.938;2023-06-22T03:51:09;42.85;;;9.85;;
77522;SDS011;66637;-29.628;-49.938;2023-06-22T03:53:52;41.72;;;10.18;;
77522;SDS011;66637;-29.628;-49.938;2023-06-22T03:56:23;31.67;;;9.20;;
77522;SDS011;66637;-29.628;-49.938;2023-06-22T03:58:59;27.48;;;7.07;;
77522;SDS011;66637;-29.628;-49.938;2023-06-22T04:01:30;22.00;;;7.68;;
77522;SDS011;66637;-29.628;-49.938;2023-06-22T04:04:01;16.83;;;6.70;;
77522;SDS011;66637;-29.628;-49.938;2023-06-22T04:06:36;16.90;;;6.82;;
77522;SDS011;66637;-29.628;-49.938;2023-06-22T04:09:07;13.15;;;6.25;;
77522;SDS011;66637;-29.628;-49.938;2023-06-22T04:11:40;12.38;;;5.72;;
77522;SDS011;66637;-29.628;-49.938;2023-06-22T04:14:13;8.10;;;5.03;;
77522;SDS011;66637;-29.628;-49.938;2023-06-22T04:16:49;9.40;;;5.20;;
77522;SDS011;66637;-29.628;-49.938;2023-06-22T04:19:25;10.38;;;5.53;;
77522;SDS011;66637;-29.628;-49.938;2023-06-22T04:21:56;10.68;;;4.80;;
77522;SDS011;66637;-29.628;-49.938;2023-06-22T04:24:29;9.48;;;4.68;;
77522;SDS011;66637;-29.628;-49.938;2023-06-22T04:30:10;5.72;;;3.70;;
77522;SDS011;66637;-29.628;-49.938;2023-06-22T04:32:57;6.43;;;4.13;;
77522;SDS011;66637;-29.628;-49.938;2023-06-22T04:35:38;7.75;;;3.95;;
77522;SDS011;66637;-29.628;-49.938;2023-06-22T04:38:14;5.15;;;3.83;;
77522;SDS011;66637;-29.628;-49.938;2023-06-22T04:40:48;5.40;;;3.60;;
77522;SDS011;66637;-29.628;-49.938;2023-06-22T04:43:46;5.32;;;2.90;;
77522;SDS011;66637;-29.628;-49.938;2023-06-22T04:46:26;4.95;;;3.10;;
77522;SDS011;66637;-29.628;-49.938;2023-06-22T04:49:07;5.40;;;3.60;;
77522;SDS011;66637;-29.628;-49.938;2023-06-22T04:51:49;7.47;;;3.40;;
77522;SDS011;66637;-29.628;-49.938;2023-06-22T04:54:24;7.30;;;3.53;;
77522;SDS011;66637;-29.628;-49.938;2023-06-22T04:57:06;7.63;;;3.63;;
77522;SDS011;66637;-29.628;-49.938;2023-06-22T04:59:47;8.38;;;3.28;;
77522;SDS011;66637;-29.628;-49.938;2023-06-22T05:02:26;21.58;;;4.78;;
77522;SDS011;66637;-29.628;-49.938;2023-06-22T05:05:24;16.02;;;4.03;;
77522;SDS011;66637;-29.628;-49.938;2023-06-22T05:08:19;18.45;;;4.13;;
77522;SDS011;66637;-29.628;-49.938;2023-06-22T05:11:07;7.10;;;3.35;;
77522;SDS011;66637;-29.628;-49.938;2023-06-22T05:13:43;5.97;;;2.83;;
77522;SDS011;66637;-29.628;-49.938;2023-06-22T05:16:19;5.25;;;2.90;;
77522;SDS011;66637;-29.628;-49.938;2023-06-22T05:19:08;5.88;;;2.95;;
77522;SDS011;66637;-29.628;-49.938;2023-06-22T05:21:52;5.32;;;3.33;;
77522;SDS011;66637;-29.628;-49.938;2023-06-22T05:24:51;4.50;;;2.88;;
77522;SDS011;66637;-29.628;-49.938;2023-06-22T05:27:31;4.57;;;2.88;;
77522;SDS011;66637;-29.628;-49.938;2023-06-22T05:30:18;4.55;;;3.10;;
77522;SDS011;66637;-29.628;-49.938;2023-06-22T05:32:54;5.15;;;3.05;;
77522;SDS011;66637;-29.628;-49.938;2023-06-22T05:35:47;4.45;;;3.05;;
77522;SDS011;66637;-29.628;-49.938;2023-06-22T05:38:26;4.97;;;3.33;;
77522;SDS011;66637;-29.628;-49.938;2023-06-22T05:41:11;40.63;;;5.68;;
77522;SDS011;66637;-29.628;-49.938;2023-06-22T05:44:00;56.00;;;7.97;;
77522;SDS011;66637;-29.628;-49.938;2023-06-22T05:46:45;59.20;;;8.30;;
77522;SDS011;66637;-29.628;-49.938;2023-06-22T05:49:34;54.60;;;8.77;;
77522;SDS011;66637;-29.628;-49.938;2023-06-22T05:52:06;49.15;;;7.28;;
77522;SDS011;66637;-29.628;-49.938;2023-06-22T05:55:17;89.93;;;11.30;;
77522;SDS011;66637;-29.628;-49.938;2023-06-22T05:58:04;115.93;;;14.52;;
77522;SDS011;66637;-29.628;-49.938;2023-06-22T06:00:48;91.15;;;13.50;;
77522;SDS011;66637;-29.628;-49.938;2023-06-22T06:03:30;113.45;;;14.55;;
77522;SDS011;66637;-29.628;-49.938;2023-06-22T06:06:09;109.40;;;14.38;;
77522;SDS011;66637;-29.628;-49.938;2023-06-22T06:09:17;88.40;;;12.73;;
77522;SDS011;66637;-29.628;-49.938;2023-06-22T06:12:00;89.28;;;11.93;;
77522;SDS011;66637;-29.628;-49.938;2023-06-22T06:14:44;64.20;;;10.45;;
77522;SDS011;66637;-29.628;-49.938;2023-06-22T06:17:47;65.97;;;9.30;;
77522;SDS011;66637;-29.628;-49.938;2023-06-22T06:20:38;58.65;;;8.75;;
77522;SDS011;66637;-29.628;-49.938;2023-06-22T06:23:29;46.95;;;6.93;;
77522;SDS011;66637;-29.628;-49.938;2023-06-22T06:26:21;65.80;;;7.60;;
77522;SDS011;66637;-29.628;-49.938;2023-06-22T06:29:01;52.33;;;7.70;;
77522;SDS011;66637;-29.628;-49.938;2023-06-22T06:32:25;49.92;;;7.07;;
77522;SDS011;66637;-29.628;-49.938;2023-06-22T06:35:09;54.05;;;7.68;;
77522;SDS011;66637;-29.628;-49.938;2023-06-22T06:37:56;43.67;;;5.57;;
77522;SDS011;66637;-29.628;-49.938;2023-06-22T06:40:42;54.05;;;6.72;;
77522;SDS011;66637;-29.628;-49.938;2023-06-22T06:43:25;64.90;;;7.50;;
77522;SDS011;66637;-29.628;-49.938;2023-06-22T06:49:07;73.85;;;9.02;;
77522;SDS011;66637;-29.628;-49.938;2023-06-22T06:51:52;43.53;;;6.07;;
77522;SDS011;66637;-29.628;-49.938;2023-06-22T06:54:30;60.20;;;7.55;;
77522;SDS011;66637;-29.628;-49.938;2023-06-22T06:57:14;46.85;;;6.65;;
77522;SDS011;66637;-29.628;-49.938;2023-06-22T07:00:11;55.70;;;7.55;;
77522;SDS011;66637;-29.628;-49.938;2023-06-22T07:03:17;35.20;;;5.38;;
77522;SDS011;66637;-29.628;-49.938;2023-06-22T07:06:30;31.83;;;4.60;;
77522;SDS011;66637;-29.628;-49.938;2023-06-22T07:09:06;15.55;;;3.55;;
77522;SDS011;66637;-29.628;-49.938;2023-06-22T07:11:52;12.25;;;2.90;;
77522;SDS011;66637;-29.628;-49.938;2023-06-22T07:15:06;17.30;;;2.70;;
77522;SDS011;66637;-29.628;-49.938;2023-06-22T07:17:45;5.35;;;1.85;;
77522;SDS011;66637;-29.628;-49.938;2023-06-22T07:20:53;4.50;;;1.80;;
77522;SDS011;66637;-29.628;-49.938;2023-06-22T07:23:55;10.15;;;2.42;;
77522;SDS011;66637;-29.628;-49.938;2023-06-22T07:26:58;5.53;;;1.55;;
77522;SDS011;66637;-29.628;-49.938;2023-06-22T07:29:41;4.00;;;1.50;;
77522;SDS011;66637;-29.628;-49.938;2023-06-22T07:32:42;4.05;;;2.00;;
77522;SDS011;66637;-29.628;-49.938;2023-06-22T07:35:51;3.30;;;1.55;;
77522;SDS011;66637;-29.628;-49.938;2023-06-22T07:38:36;3.17;;;1.55;;
77522;SDS011;66637;-29.628;-49.938;2023-06-22T07:41:28;9.85;;;2.53;;
77522;SDS011;66637;-29.628;-49.938;2023-06-22T07:44:39;29.42;;;4.78;;
77522;SDS011;66637;-29.628;-49.938;2023-06-22T07:47:42;41.50;;;6.15;;
77522;SDS011;66637;-29.628;-49.938;2023-06-22T07:50:49;58.17;;;8.07;;
77522;SDS011;66637;-29.628;-49.938;2023-06-22T07:53:39;61.95;;;7.80;;
77522;SDS011;66637;-29.628;-49.938;2023-06-22T07:56:29;48.72;;;7.25;;
77522;SDS011;66637;-29.628;-49.938;2023-06-22T07:59:21;53.55;;;7.28;;
77522;SDS011;66637;-29.628;-49.938;2023-06-22T08:02:48;45.50;;;6.95;;
77522;SDS011;66637;-29.628;-49.938;2023-06-22T08:06:25;50.33;;;6.85;;
77522;SDS011;66637;-29.628;-49.938;2023-06-22T08:12:26;45.33;;;6.10;;
77522;SDS011;66637;-29.628;-49.938;2023-06-22T08:15:15;41.15;;;6.22;;
77522;SDS011;66637;-29.628;-49.938;2023-06-22T08:17:47;23.25;;;4.10;;
77522;SDS011;66637;-29.628;-49.938;2023-06-22T08:24:02;39.17;;;5.00;;
77522;SDS011;66637;-29.628;-49.938;2023-06-22T08:27:12;29.58;;;4.55;;
77522;SDS011;66637;-29.628;-49.938;2023-06-22T08:30:06;33.58;;;5.63;;
77522;SDS011;66637;-29.628;-49.938;2023-06-22T08:32:48;29.70;;;4.55;;
77522;SDS011;66637;-29.628;-49.938;2023-06-22T08:35:59;29.85;;;5.30;;
77522;SDS011;66637;-29.628;-49.938;2023-06-22T08:38:40;24.67;;;4.57;;
77522;SDS011;66637;-29.628;-49.938;2023-06-22T08:41:26;36.08;;;6.03;;
77522;SDS011;66637;-29.628;-49.938;2023-06-22T08:44:20;38.50;;;5.65;;
77522;SDS011;66637;-29.628;-49.938;2023-06-22T08:47:24;37.22;;;5.70;;
77522;SDS011;66637;-29.628;-49.938;2023-06-22T08:50:19;43.03;;;5.75;;
77522;SDS011;66637;-29.628;-49.938;2023-06-22T08:53:00;36.33;;;6.05;;
77522;SDS011;66637;-29.628;-49.938;2023-06-22T08:56:13;42.05;;;7.57;;
77522;SDS011;66637;-29.628;-49.938;2023-06-22T08:59:17;44.08;;;6.82;;
77522;SDS011;66637;-29.628;-49.938;2023-06-22T09:01:58;45.83;;;7.40;;
77522;SDS011;66637;-29.628;-49.938;2023-06-22T09:04:47;40.30;;;5.72;;
77522;SDS011;66637;-29.628;-49.938;2023-06-22T09:07:44;37.05;;;6.00;;
77522;SDS011;66637;-29.628;-49.938;2023-06-22T09:10:50;47.50;;;7.10;;
77522;SDS011;66637;-29.628;-49.938;2023-06-22T09:13:43;39.78;;;6.53;;
77522;SDS011;66637;-29.628;-49.938;2023-06-22T09:16:17;38.03;;;6.60;;
77522;SDS011;66637;-29.628;-49.938;2023-06-22T09:19:29;40.92;;;6.97;;
77522;SDS011;66637;-29.628;-49.938;2023-06-22T09:21:59;45.05;;;6.57;;
77522;SDS011;66637;-29.628;-49.938;2023-06-22T09:24:30;37.88;;;6.03;;
77522;SDS011;66637;-29.628;-49.938;2023-06-22T09:27:01;32.35;;;5.75;;
77522;SDS011;66637;-29.628;-49.938;2023-06-22T09:29:30;41.50;;;6.93;;
77522;SDS011;66637;-29.628;-49.938;2023-06-22T09:32:04;36.47;;;6.35;;
77522;SDS011;66637;-29.628;-49.938;2023-06-22T09:34:36;35.95;;;5.15;;
77522;SDS011;66637;-29.628;-49.938;2023-06-22T09:37:06;45.50;;;7.43;;
77522;SDS011;66637;-29.628;-49.938;2023-06-22T09:39:37;49.42;;;9.23;;
77522;SDS011;66637;-29.628;-49.938;2023-06-22T09:42:07;32.45;;;5.60;;
77522;SDS011;66637;-29.628;-49.938;2023-06-22T09:44:38;44.28;;;7.20;;
77522;SDS011;66637;-29.628;-49.938;2023-06-22T09:47:08;42.17;;;7.60;;
77522;SDS011;66637;-29.628;-49.938;2023-06-22T09:49:39;52.92;;;7.95;;
77522;SDS011;66637;-29.628;-49.938;2023-06-22T09:54:45;36.85;;;6.20;;
77522;SDS011;66637;-29.628;-49.938;2023-06-22T09:57:15;34.72;;;6.30;;
77522;SDS011;66637;-29.628;-49.938;2023-06-22T09:59:45;29.80;;;5.72;;
77522;SDS011;66637;-29.628;-49.938;2023-06-22T10:02:17;29.95;;;5.40;;
77522;SDS011;66637;-29.628;-49.938;2023-06-22T10:04:48;20.65;;;5.18;;
77522;SDS011;66637;-29.628;-49.938;2023-06-22T10:07:21;26.23;;;5.75;;
77522;SDS011;66637;-29.628;-49.938;2023-06-22T10:10:24;19.92;;;4.65;;
77522;SDS011;66637;-29.628;-49.938;2023-06-22T10:13:16;13.57;;;4.00;;
77522;SDS011;66637;-29.628;-49.938;2023-06-22T10:16:09;13.80;;;3.55;;
77522;SDS011;66637;-29.628;-49.938;2023-06-22T10:19:15;12.10;;;3.60;;
77522;SDS011;66637;-29.628;-49.938;2023-06-22T10:22:04;20.90;;;3.75;;
77522;SDS011;66637;-29.628;-49.938;2023-06-22T10:24:49;8.70;;;3.28;;
77522;SDS011;66637;-29.628;-49.938;2023-06-22T10:27:43;10.48;;;3.22;;
77522;SDS011;66637;-29.628;-49.938;2023-06-22T10:30:20;11.75;;;3.70;;
77522;SDS011;66637;-29.628;-49.938;2023-06-22T10:33:42;12.07;;;3.60;;
77522;SDS011;66637;-29.628;-49.938;2023-06-22T10:36:53;12.90;;;3.55;;
77522;SDS011;66637;-29.628;-49.938;2023-06-22T10:39:43;9.82;;;3.10;;
77522;SDS011;66637;-29.628;-49.938;2023-06-22T10:42:33;10.82;;;3.33;;
77522;SDS011;66637;-29.628;-49.938;2023-06-22T10:45:20;10.85;;;3.67;;
77522;SDS011;66637;-29.628;-49.938;2023-06-22T10:48:18;9.45;;;3.47;;
77522;SDS011;66637;-29.628;-49.938;2023-06-22T10:50:51;13.68;;;3.63;;
77522;SDS011;66637;-29.628;-49.938;2023-06-22T10:54:17;12.90;;;3.75;;
77522;SDS011;66637;-29.628;-49.938;2023-06-22T10:57:05;24.30;;;4.60;;
77522;SDS011;66637;-29.628;-49.938;2023-06-22T10:59:55;19.15;;;3.88;;
77522;SDS011;66637;-29.628;-49.938;2023-06-22T11:02:42;20.35;;;4.43;;
77522;SDS011;66637;-29.628;-49.938;2023-06-22T11:05:40;31.48;;;6.03;;
77522;SDS011;66637;-29.628;-49.938;2023-06-22T11:08:11;24.83;;;4.90;;
77522;SDS011;66637;-29.628;-49.938;2023-06-22T11:11:00;22.15;;;4.35;;
77522;SDS011;66637;-29.628;-49.938;2023-06-22T11:13:46;24.40;;;5.28;;
77522;SDS011;66637;-29.628;-49.938;2023-06-22T11:16:56;36.03;;;7.63;;
77522;SDS011;66637;-29.628;-49.938;2023-06-22T11:19:32;65.90;;;10.68;;
77522;SDS011;66637;-29.628;-49.938;2023-06-22T11:22:18;66.35;;;10.60;;
77522;SDS011;66637;-29.628;-49.938;2023-06-22T11:25:00;101.68;;;13.05;;
77522;SDS011;66637;-29.628;-49.938;2023-06-22T11:27:51;100.60;;;13.55;;
77522;SDS011;66637;-29.628;-49.938;2023-06-22T11:30:47;89.82;;;13.93;;
77522;SDS011;66637;-29.628;-49.938;2023-06-22T11:33:52;63.65;;;10.77;;
77522;SDS011;66637;-29.628;-49.938;2023-06-22T11:36:45;65.13;;;9.43;;
77522;SDS011;66637;-29.628;-49.938;2023-06-22T11:39:30;59.90;;;9.35;;
77522;SDS011;66637;-29.628;-49.938;2023-06-22T11:42:27;83.43;;;11.90;;
77522;SDS011;66637;-29.628;-49.938;2023-06-22T11:45:50;119.65;;;16.60;;
77522;SDS011;66637;-29.628;-49.938;2023-06-22T11:48:41;74.32;;;10.80;;
77522;SDS011;66637;-29.628;-49.938;2023-06-22T11:51:42;79.80;;;10.30;;
77522;SDS011;66637;-29.628;-49.938;2023-06-22T11:54:32;87.95;;;11.98;;
77522;SDS011;66637;-29.628;-49.938;2023-06-22T11:57:38;71.25;;;11.07;;
77522;SDS011;66637;-29.628;-49.938;2023-06-22T12:00:23;69.30;;;10.00;;
77522;SDS011;66637;-29.628;-49.938;2023-06-22T12:03:15;50.60;;;8.10;;
77522;SDS011;66637;-29.628;-49.938;2023-06-22T12:06:04;50.50;;;7.63;;
77522;SDS011;66637;-29.628;-49.938;2023-06-22T12:09:10;55.53;;;9.98;;
77522;SDS011;66637;-29.628;-49.938;2023-06-22T12:12:24;51.80;;;9.63;;
77522;SDS011;66637;-29.628;-49.938;2023-06-22T12:15:01;55.50;;;9.35;;
77522;SDS011;66637;-29.628;-49.938;2023-06-22T12:17:49;43.78;;;9.00;;
77522;SDS011;66637;-29.628;-49.938;2023-06-22T12:20:51;51.85;;;9.85;;
77522;SDS011;66637;-29.628;-49.938;2023-06-22T12:23:35;58.25;;;11.05;;
77522;SDS011;66637;-29.628;-49.938;2023-06-22T12:26:46;68.97;;;11.07;;
77522;SDS011;66637;-29.628;-49.938;2023-06-22T12:29:26;72.88;;;11.77;;
77522;SDS011;66637;-29.628;-49.938;2023-06-22T12:32:17;63.92;;;10.85;;
77522;SDS011;66637;-29.628;-49.938;2023-06-22T12:35:02;65.53;;;11.13;;
77522;SDS011;66637;-29.628;-49.938;2023-06-22T12:38:09;86.50;;;13.68;;
77522;SDS011;66637;-29.628;-49.938;2023-06-22T12:41:02;56.42;;;11.10;;
77522;SDS011;66637;-29.628;-49.938;2023-06-22T12:44:02;85.50;;;13.02;;
77522;SDS011;66637;-29.628;-49.938;2023-06-22T12:47:31;92.93;;;14.40;;
77522;SDS011;66637;-29.628;-49.938;2023-06-22T12:50:24;103.30;;;17.45;;
77522;SDS011;66637;-29.628;-49.938;2023-06-22T12:53:08;81.50;;;13.27;;
77522;SDS011;66637;-29.628;-49.938;2023-06-22T12:56:00;52.75;;;10.30;;
77522;SDS011;66637;-29.628;-49.938;2023-06-22T12:58:37;69.03;;;11.75;;
77522;SDS011;66637;-29.628;-49.938;2023-06-22T13:01:56;61.13;;;12.40;;
77522;SDS011;66637;-29.628;-49.938;2023-06-22T13:04:48;46.45;;;10.07;;
77522;SDS011;66637;-29.628;-49.938;2023-06-22T13:08:02;48.25;;;10.55;;
77522;SDS011;66637;-29.628;-49.938;2023-06-22T13:10:54;51.15;;;8.95;;
77522;SDS011;66637;-29.628;-49.938;2023-06-22T13:14:08;55.67;;;10.50;;
77522;SDS011;66637;-29.628;-49.938;2023-06-22T13:19:54;45.15;;;9.38;;
77522;SDS011;66637;-29.628;-49.938;2023-06-22T13:22:44;84.07;;;14.05;;
77522;SDS011;66637;-29.628;-49.938;2023-06-22T13:25:34;58.95;;;11.75;;
77522;SDS011;66637;-29.628;-49.938;2023-06-22T13:28:24;81.45;;;14.98;;
77522;SDS011;66637;-29.628;-49.938;2023-06-22T13:31:26;51.03;;;11.75;;
77522;SDS011;66637;-29.628;-49.938;2023-06-22T13:34:17;48.13;;;10.48;;
77522;SDS011;66637;-29.628;-49.938;2023-06-22T13:37:04;58.55;;;10.95;;
77522;SDS011;66637;-29.628;-49.938;2023-06-22T13:39:50;65.72;;;12.43;;
77522;SDS011;66637;-29.628;-49.938;2023-06-22T13:42:56;70.20;;;12.85;;
77522;SDS011;66637;-29.628;-49.938;2023-06-22T13:46:02;80.65;;;13.07;;
77522;SDS011;66637;-29.628;-49.938;2023-06-22T13:48:57;58.15;;;10.55;;
77522;SDS011;66637;-29.628;-49.938;2023-06-22T13:51:36;80.97;;;14.25;;
77522;SDS011;66637;-29.628;-49.938;2023-06-22T13:54:19;66.63;;;12.32;;
77522;SDS011;66637;-29.628;-49.938;2023-06-22T13:57:28;73.85;;;12.90;;
77522;SDS011;66637;-29.628;-49.938;2023-06-22T14:00:06;80.60;;;13.98;;
77522;SDS011;66637;-29.628;-49.938;2023-06-22T14:03:09;84.43;;;15.00;;
77522;SDS011;66637;-29.628;-49.938;2023-06-22T14:05:52;81.15;;;15.10;;
77522;SDS011;66637;-29.628;-49.938;2023-06-22T14:08:54;100.78;;;16.42;;
77522;SDS011;66637;-29.628;-49.938;2023-06-22T14:12:06;16.48;;;5.55;;
77522;SDS011;66637;-29.628;-49.938;2023-06-22T14:14:54;7.28;;;4.97;;
77522;SDS011;66637;-29.628;-49.938;2023-06-22T14:17:41;6.82;;;4.30;;
77522;SDS011;66637;-29.628;-49.938;2023-06-22T14:20:28;6.68;;;4.28;;
77522;SDS011;66637;-29.628;-49.938;2023-06-22T14:23:26;7.75;;;5.10;;
77522;SDS011;66637;-29.628;-49.938;2023-06-22T14:26:06;7.13;;;4.85;;
77522;SDS011;66637;-29.628;-49.938;2023-06-22T14:29:18;8.40;;;5.30;;
77522;SDS011;66637;-29.628;-49.938;2023-06-22T14:32:00;6.50;;;5.22;;
77522;SDS011;66637;-29.628;-49.938;2023-06-22T14:34:53;7.50;;;5.68;;
77522;SDS011;66637;-29.628;-49.938;2023-06-22T14:40:59;6.60;;;4.88;;
77522;SDS011;66637;-29.628;-49.938;2023-06-22T14:43:46;7.32;;;5.45;;
77522;SDS011;66637;-29.628;-49.938;2023-06-22T14:47:17;7.80;;;5.35;;
77522;SDS011;66637;-29.628;-49.938;2023-06-22T14:50:05;7.45;;;5.28;;
77522;SDS011;66637;-29.628;-49.938;2023-06-22T14:52:53;5.38;;;4.63;;
77522;SDS011;66637;-29.628;-49.938;2023-06-22T14:56:04;7.50;;;5.18;;
77522;SDS011;66637;-29.628;-49.938;2023-06-22T14:59:15;7.35;;;4.82;;
77522;SDS011;66637;-29.628;-49.938;2023-06-22T15:02:03;29.10;;;7.53;;
77522;SDS011;66637;-29.628;-49.938;2023-06-22T15:04:39;5.90;;;5.10;;
77522;SDS011;66637;-29.628;-49.938;2023-06-22T15:07:18;8.98;;;5.15;;
77522;SDS011;66637;-29.628;-49.938;2023-06-22T15:13:12;8.68;;;5.60;;
77522;SDS011;66637;-29.628;-49.938;2023-06-22T15:16:29;6.72;;;5.45;;
77522;SDS011;66637;-29.628;-49.938;2023-06-22T15:19:09;7.90;;;5.97;;
77522;SDS011;66637;-29.628;-49.938;2023-06-22T15:22:30;10.40;;;6.25;;
77522;SDS011;66637;-29.628;-49.938;2023-06-22T15:25:24;99.57;;;18.73;;
77522;SDS011;66637;-29.628;-49.938;2023-06-22T15:28:14;157.77;;;25.08;;
77522;SDS011;66637;-29.628;-49.938;2023-06-22T15:31:28;142.05;;;23.48;;
77522;SDS011;66637;-29.628;-49.938;2023-06-22T15:38:00;11.07;;;9.93;;
77522;SDS011;66637;-29.628;-49.938;2023-06-22T15:40:48;9.38;;;8.18;;
77522;SDS011;66637;-29.628;-49.938;2023-06-22T15:43:45;9.52;;;8.27;;
77522;SDS011;66637;-29.628;-49.938;2023-06-22T15:46:37;12.05;;;9.80;;
77522;SDS011;66637;-29.628;-49.938;2023-06-22T15:50:05;10.80;;;9.20;;
77522;SDS011;66637;-29.628;-49.938;2023-06-22T15:53:31;9.90;;;8.90;;
77522;SDS011;66637;-29.628;-49.938;2023-06-22T15:56:20;9.63;;;8.43;;
77522;SDS011;66637;-29.628;-49.938;2023-06-22T15:59:30;12.13;;;9.05;;
77522;SDS011;66637;-29.628;-49.938;2023-06-22T16:02:27;10.13;;;8.88;;
77522;SDS011;66637;-29.628;-49.938;2023-06-22T16:05:22;10.88;;;8.73;;
77522;SDS011;66637;-29.628;-49.938;2023-06-22T16:08:11;11.80;;;8.65;;
77522;SDS011;66637;-29.628;-49.938;2023-06-22T16:11:05;10.50;;;8.82;;
77522;SDS011;66637;-29.628;-49.938;2023-06-22T16:13:44;10.15;;;9.00;;
77522;SDS011;66637;-29.628;-49.938;2023-06-22T16:16:49;10.15;;;8.52;;
77522;SDS011;66637;-29.628;-49.938;2023-06-22T16:23:09;35.15;;;11.88;;
77522;SDS011;66637;-29.628;-49.938;2023-06-22T16:25:55;59.22;;;12.57;;